createdAt,value
2022-10-22T00:00:27.271Z,5.78
2022-10-22T00:03:14.120Z,6.38
2022-10-22T00:06:02.404Z,6.20
2022-10-22T00:08:49.408Z,5.97
2022-10-22T00:11:39.214Z,5.05
2022-10-22T00:14:28.124Z,7.13
2022-10-22T00:17:17.259Z,6.10
2022-10-22T00:20:06.987Z,5.50
2022-10-22T00:22:57.923Z,5.63
2022-10-22T00:25:46.970Z,5.28
2022-10-22T00:28:36.111Z,5.20
2022-10-22T00:31:25.408Z,4.88
2022-10-22T00:34:14.772Z,5.38
2022-10-22T00:37:06.397Z,4.82
2022-10-22T00:39:56.896Z,5.65
2022-10-22T00:42:46.338Z,5.43
2022-10-22T00:45:35.782Z,5.50
2022-10-22T00:48:25.846Z,5.85
2022-10-22T00:51:14.827Z,5.97
2022-10-22T00:54:05.483Z,6.43
2022-10-22T00:56:56.752Z,6.40
2022-10-22T00:59:46.193Z,6.70
2022-10-22T01:02:35.963Z,7.60
2022-10-22T01:05:25.247Z,7.38
2022-10-22T01:08:20.619Z,6.78
2022-10-22T01:11:14.989Z,6.80
2022-10-22T01:14:13.075Z,6.90
2022-10-22T01:17:03.878Z,7.10
2022-10-22T01:19:58.991Z,7.22
2022-10-22T01:22:51.754Z,6.13
2022-10-22T01:25:39.450Z,6.80
2022-10-22T01:28:32.829Z,6.68
2022-10-22T01:31:22.914Z,6.68
2022-10-22T01:34:11.496Z,6.45
2022-10-22T01:36:58.945Z,7.03
2022-10-22T01:39:46.784Z,6.75
2022-10-22T01:42:33.813Z,6.60
2022-10-22T01:45:20.730Z,6.80
2022-10-22T01:48:13.984Z,6.93
2022-10-22T01:51:08.436Z,7.45
2022-10-22T01:54:00.099Z,6.70
2022-10-22T01:56:52.757Z,7.57
2022-10-22T01:59:45.744Z,7.47
2022-10-22T02:02:35.665Z,7.43
2022-10-22T02:05:26.482Z,6.97
2022-10-22T02:08:15.798Z,7.15
2022-10-22T02:11:03.277Z,7.35
2022-10-22T02:13:51.603Z,6.93
2022-10-22T02:16:40.548Z,6.93
2022-10-22T02:19:28.095Z,6.38
2022-10-22T02:22:16.653Z,6.03
2022-10-22T02:25:03.847Z,6.88
2022-10-22T02:27:52.848Z,6.45
2022-10-22T02:30:40.585Z,7.35
2022-10-22T02:33:30.157Z,6.32
2022-10-22T02:36:17.493Z,6.93
2022-10-22T02:39:06.228Z,6.60
2022-10-22T02:41:55.543Z,6.90
2022-10-22T02:44:42.455Z,6.90
2022-10-22T02:47:29.561Z,6.70
2022-10-22T02:50:16.424Z,7.72
2022-10-22T02:53:03.120Z,6.40
2022-10-22T02:55:51.391Z,7.15
2022-10-22T02:58:38.606Z,6.88
2022-10-22T03:01:25.424Z,6.70
2022-10-22T03:04:12.374Z,7.53
2022-10-22T03:06:59.341Z,6.93
2022-10-22T03:09:46.590Z,7.18
2022-10-22T03:12:34.897Z,7.25
2022-10-22T03:15:22.107Z,7.13
2022-10-22T03:18:08.992Z,6.82
2022-10-22T03:21:01.695Z,7.43
2022-10-22T03:23:48.941Z,7.60
2022-10-22T03:26:36.819Z,7.07
2022-10-22T03:29:26.617Z,6.82
2022-10-22T03:32:13.951Z,8.15
2022-10-22T03:35:01.105Z,7.72
2022-10-22T03:37:48.021Z,7.93
2022-10-22T03:40:35.013Z,8.02
2022-10-22T03:43:22.147Z,8.15
2022-10-22T03:46:10.439Z,8.98
2022-10-22T03:48:57.471Z,9.52
2022-10-22T03:51:44.216Z,8.55
2022-10-22T03:54:31.071Z,9.05
2022-10-22T03:57:17.998Z,9.30
2022-10-22T04:00:06.320Z,9.15
2022-10-22T04:02:54.781Z,9.00
2022-10-22T04:05:41.646Z,9.60
2022-10-22T04:08:28.509Z,8.40
2022-10-22T04:11:15.866Z,8.90
2022-10-22T04:14:02.886Z,9.52
2022-10-22T04:16:49.919Z,9.07
2022-10-22T04:19:38.177Z,9.50
2022-10-22T04:22:25.204Z,9.65
2022-10-22T04:25:12.027Z,9.38
2022-10-22T04:27:58.907Z,9.27
2022-10-22T04:30:45.691Z,9.85
2022-10-22T04:33:32.451Z,9.65
2022-10-22T04:36:20.917Z,10.13
2022-10-22T04:39:08.099Z,10.18
2022-10-22T04:41:54.970Z,10.20
2022-10-22T04:44:41.728Z,10.25
2022-10-22T04:47:28.539Z,10.40
2022-10-22T04:50:15.291Z,10.40
2022-10-22T04:53:03.663Z,11.48
2022-10-22T04:55:50.801Z,11.02
2022-10-22T04:58:37.924Z,10.80
2022-10-22T05:01:26.181Z,11.13
2022-10-22T05:04:13.795Z,12.05
2022-10-22T05:07:01.005Z,10.57
2022-10-22T05:09:49.140Z,11.48
2022-10-22T05:12:36.344Z,10.82
2022-10-22T05:15:23.533Z,10.77
2022-10-22T05:18:10.344Z,11.70
2022-10-22T05:20:57.279Z,11.27
2022-10-22T05:23:45.080Z,10.38
2022-10-22T05:26:33.609Z,11.25
2022-10-22T05:29:20.854Z,11.88
2022-10-22T05:32:07.668Z,10.27
2022-10-22T05:34:54.514Z,10.65
2022-10-22T05:37:41.464Z,10.48
2022-10-22T05:40:31.083Z,9.80
2022-10-22T05:43:19.690Z,10.40
2022-10-22T05:46:07.449Z,10.10
2022-10-22T05:48:54.976Z,11.18
2022-10-22T05:51:41.838Z,10.07
2022-10-22T05:54:28.739Z,10.25
2022-10-22T05:57:15.640Z,10.85
2022-10-22T06:00:03.723Z,10.65
2022-10-22T06:02:51.545Z,9.85
2022-10-22T06:05:38.855Z,10.18
2022-10-22T06:08:26.228Z,9.38
2022-10-22T06:11:13.308Z,10.00
2022-10-22T06:14:00.209Z,10.57
2022-10-22T06:16:49.123Z,9.23
2022-10-22T06:19:36.454Z,9.45
2022-10-22T06:22:23.667Z,9.10
2022-10-22T06:25:11.047Z,8.90
2022-10-22T06:27:58.073Z,9.40
2022-10-22T06:30:46.611Z,9.48
2022-10-22T06:33:42.134Z,9.32
2022-10-22T06:36:29.345Z,9.20
2022-10-22T06:39:17.620Z,10.00
2022-10-22T06:42:04.784Z,9.52
2022-10-22T06:44:51.903Z,9.65
2022-10-22T06:47:39.691Z,9.70
2022-10-22T06:50:28.582Z,10.43
2022-10-22T06:53:15.459Z,9.77
2022-10-22T06:56:05.881Z,9.25
2022-10-22T06:58:53.555Z,9.85
2022-10-22T07:01:40.554Z,9.70
2022-10-22T07:04:27.307Z,9.35
2022-10-22T07:07:16.099Z,8.88
2022-10-22T07:10:03.217Z,8.90
2022-10-22T07:12:50.126Z,8.63
2022-10-22T07:15:36.963Z,7.47
2022-10-22T07:18:24.081Z,7.30
2022-10-22T07:21:12.148Z,8.02
2022-10-22T07:24:00.523Z,7.40
2022-10-22T07:26:47.706Z,7.55
2022-10-22T07:29:34.855Z,6.53
2022-10-22T07:32:23.926Z,7.55
2022-10-22T07:35:10.894Z,8.25
2022-10-22T07:37:57.798Z,7.65
2022-10-22T07:40:46.129Z,7.47
2022-10-22T07:43:33.073Z,6.82
2022-10-22T07:46:20.340Z,7.18
2022-10-22T07:49:07.163Z,7.18
2022-10-22T07:51:54.181Z,6.70
2022-10-22T07:54:41.309Z,6.72
2022-10-22T07:57:29.556Z,6.80
2022-10-22T08:00:17.800Z,8.13
2022-10-22T08:03:05.499Z,7.22
2022-10-22T08:05:52.816Z,7.18
2022-10-22T08:08:39.629Z,7.10
2022-10-22T08:11:26.952Z,6.60
2022-10-22T08:14:15.119Z,7.00
2022-10-22T08:17:01.835Z,6.28
2022-10-22T08:19:48.715Z,6.03
2022-10-22T08:22:35.745Z,6.07
2022-10-22T08:25:23.070Z,6.03
2022-10-22T08:28:10.369Z,6.10
2022-10-22T08:30:58.755Z,5.85
2022-10-22T08:33:45.860Z,6.38
2022-10-22T08:36:32.811Z,6.40
2022-10-22T08:39:19.855Z,5.70
2022-10-22T08:42:09.040Z,5.32
2022-10-22T08:45:02.437Z,5.00
2022-10-22T08:48:00.103Z,5.47
2022-10-22T08:50:48.003Z,4.70
2022-10-22T08:53:38.973Z,5.47
2022-10-22T08:56:26.146Z,4.57
2022-10-22T08:59:15.944Z,4.47
2022-10-22T09:02:03.009Z,4.20
2022-10-22T09:04:57.625Z,4.22
2022-10-22T09:07:49.988Z,4.45
2022-10-22T09:10:37.931Z,4.07
2022-10-22T09:13:25.113Z,4.13
2022-10-22T09:16:16.018Z,6.47
2022-10-22T09:19:06.421Z,4.32
2022-10-22T09:21:59.615Z,4.45
2022-10-22T09:24:48.043Z,4.28
2022-10-22T09:27:34.910Z,4.28
2022-10-22T09:30:23.060Z,4.35
2022-10-22T09:33:13.495Z,4.65
2022-10-22T09:36:03.611Z,4.35
2022-10-22T09:38:52.671Z,4.22
2022-10-22T09:41:39.820Z,4.28
2022-10-22T09:44:27.423Z,3.50
2022-10-22T09:47:42.942Z,3.92
2022-10-22T09:50:39.402Z,3.63
2022-10-22T09:53:27.254Z,3.60
2022-10-22T09:56:19.803Z,3.72
2022-10-22T09:59:07.793Z,3.83
2022-10-22T10:02:04.956Z,3.90
2022-10-22T10:05:03.271Z,3.45
2022-10-22T10:07:50.630Z,4.20
2022-10-22T10:10:41.077Z,3.55
2022-10-22T10:13:38.285Z,3.55
2022-10-22T10:16:28.697Z,3.65
2022-10-22T10:19:28.444Z,3.58
2022-10-22T10:22:20.737Z,3.28
2022-10-22T10:25:21.776Z,3.20
2022-10-22T10:28:16.183Z,3.42
2022-10-22T10:31:07.989Z,3.40
2022-10-22T10:34:01.275Z,3.08
2022-10-22T10:36:53.197Z,3.10
2022-10-22T10:39:44.529Z,4.15
2022-10-22T10:42:34.782Z,2.67
2022-10-22T10:45:25.934Z,3.22
2022-10-22T10:48:22.228Z,3.13
2022-10-22T10:51:13.387Z,3.22
2022-10-22T10:54:05.828Z,3.05
2022-10-22T10:56:55.425Z,2.83
2022-10-22T10:59:46.689Z,2.80
2022-10-22T11:02:53.823Z,2.80
2022-10-22T11:05:42.671Z,2.65
2022-10-22T11:08:31.716Z,3.17
2022-10-22T11:11:20.621Z,2.50
2022-10-22T11:14:12.651Z,2.15
2022-10-22T11:17:01.929Z,2.55
2022-10-22T11:19:54.645Z,2.30
2022-10-22T11:23:13.504Z,2.83
2022-10-22T11:25:55.783Z,2.92
2022-10-22T11:28:45.053Z,10.23
2022-10-22T11:31:32.755Z,5.05
2022-10-22T11:34:33.276Z,3.17
2022-10-22T11:37:22.111Z,3.67
2022-10-22T11:40:15.912Z,4.82
2022-10-22T11:43:05.344Z,2.75
2022-10-22T11:45:58.144Z,3.38
2022-10-22T11:48:45.306Z,2.97
2022-10-22T11:51:36.609Z,3.30
2022-10-22T11:54:31.235Z,3.40
2022-10-22T11:57:26.555Z,3.08
2022-10-22T12:00:35.642Z,5.18
2022-10-22T12:03:25.735Z,4.78
2022-10-22T12:06:20.870Z,4.95
2022-10-22T12:09:07.789Z,3.00
2022-10-22T12:11:55.738Z,2.42
2022-10-22T12:14:54.384Z,3.08
2022-10-22T12:17:43.290Z,2.83
2022-10-22T12:20:30.783Z,3.60
2022-10-22T12:23:18.132Z,3.80
2022-10-22T12:26:06.170Z,4.45
2022-10-22T12:28:52.915Z,5.32
2022-10-22T12:31:42.088Z,4.22
2022-10-22T12:34:29.492Z,2.53
2022-10-22T12:37:17.570Z,3.63
2022-10-22T12:40:04.384Z,3.42
2022-10-22T12:42:52.405Z,2.65
2022-10-22T12:45:40.222Z,3.03
2022-10-22T12:48:30.945Z,3.80
2022-10-22T12:51:20.559Z,3.63
2022-10-22T12:54:10.516Z,3.33
2022-10-22T12:56:58.608Z,2.35
2022-10-22T12:59:49.717Z,2.30
2022-10-22T13:02:37.136Z,2.00
2022-10-22T13:05:27.657Z,1.80
2022-10-22T13:08:18.962Z,1.80
2022-10-22T13:11:08.963Z,2.20
2022-10-22T13:14:02.433Z,1.67
2022-10-22T13:17:06.063Z,2.03
2022-10-22T13:20:02.142Z,2.05
2022-10-22T13:23:00.134Z,1.98
2022-10-22T13:25:57.563Z,1.88
2022-10-22T13:28:50.622Z,1.58
2022-10-22T13:31:38.154Z,2.00
2022-10-22T13:34:26.026Z,1.88
2022-10-22T13:37:12.860Z,1.95
2022-10-22T13:40:01.134Z,1.60
2022-10-22T13:42:48.268Z,1.75
2022-10-22T13:45:35.101Z,1.95
2022-10-22T13:48:22.706Z,1.80
2022-10-22T13:51:14.654Z,1.90
2022-10-22T13:54:01.936Z,2.20
2022-10-22T13:56:50.317Z,2.33
2022-10-22T13:59:37.598Z,2.20
2022-10-22T14:02:24.946Z,1.98
2022-10-22T14:05:12.088Z,2.90
2022-10-22T14:08:00.285Z,2.45
2022-10-22T14:10:47.123Z,1.80
2022-10-22T14:13:35.243Z,2.60
2022-10-22T14:16:23.877Z,2.20
2022-10-22T14:19:11.410Z,1.92
2022-10-22T14:21:58.599Z,2.45
2022-10-22T14:24:46.085Z,2.13
2022-10-22T14:27:33.079Z,1.80
2022-10-22T14:30:24.280Z,1.63
2022-10-22T14:33:14.326Z,2.17
2022-10-22T14:36:01.837Z,1.77
2022-10-22T14:38:49.295Z,2.50
2022-10-22T14:41:36.453Z,2.33
2022-10-22T14:44:24.416Z,1.77
2022-10-22T14:47:13.274Z,2.67
2022-10-22T14:50:01.889Z,3.05
2022-10-22T14:52:49.008Z,2.22
2022-10-22T14:55:35.895Z,2.65
2022-10-22T14:58:23.649Z,2.53
2022-10-22T15:01:10.909Z,2.20
2022-10-22T15:03:59.257Z,2.75
2022-10-22T15:06:46.090Z,2.97
2022-10-22T15:09:33.312Z,3.70
2022-10-22T15:12:21.300Z,3.85
2022-10-22T15:15:08.594Z,3.90
2022-10-22T15:17:55.607Z,3.17
2022-10-22T15:20:43.950Z,3.13
2022-10-22T15:23:31.472Z,2.95
2022-10-22T15:26:18.281Z,2.33
2022-10-22T15:29:05.391Z,2.20
2022-10-22T15:31:53.181Z,2.10
2022-10-22T15:34:41.001Z,2.13
2022-10-22T15:37:30.872Z,2.03
2022-10-22T15:40:17.635Z,1.90
2022-10-22T15:43:04.402Z,2.70
2022-10-22T15:46:02.375Z,2.00
2022-10-22T15:48:49.112Z,2.10
2022-10-22T15:51:36.099Z,1.67
2022-10-22T15:54:25.720Z,1.90
2022-10-22T15:57:12.863Z,1.90
2022-10-22T15:59:59.843Z,1.90
2022-10-22T16:02:46.938Z,1.98
2022-10-22T16:05:34.241Z,1.73
2022-10-22T16:08:21.044Z,1.70
2022-10-22T16:11:09.590Z,1.90
2022-10-22T16:13:57.453Z,2.00
2022-10-22T16:16:45.221Z,2.60
2022-10-22T16:19:33.285Z,3.00
2022-10-22T16:22:20.474Z,2.53
2022-10-22T16:25:08.236Z,3.33
2022-10-22T16:27:56.402Z,3.40
2022-10-22T16:30:43.207Z,3.10
2022-10-22T16:33:39.128Z,3.33
2022-10-22T16:36:29.995Z,3.17
2022-10-22T16:39:17.129Z,2.28
2022-10-22T16:42:04.129Z,2.80
2022-10-22T16:44:52.304Z,2.35
2022-10-22T16:47:40.464Z,2.83
2022-10-22T16:50:27.720Z,2.75
2022-10-22T16:53:14.597Z,3.00
2022-10-22T16:56:01.438Z,2.72
2022-10-22T16:58:49.747Z,3.60
2022-10-22T17:01:40.866Z,5.53
2022-10-22T17:04:28.491Z,4.50
2022-10-22T17:07:15.371Z,4.38
2022-10-22T17:10:03.529Z,3.80
2022-10-22T17:12:50.393Z,3.50
2022-10-22T17:15:37.459Z,4.28
2022-10-22T17:18:25.678Z,3.80
2022-10-22T17:21:13.061Z,4.28
2022-10-22T17:23:59.898Z,4.53
2022-10-22T17:26:46.718Z,3.90
2022-10-22T17:29:33.510Z,3.95
2022-10-22T17:32:20.345Z,3.55
2022-10-22T17:35:08.892Z,3.45
2022-10-22T17:37:55.859Z,3.58
2022-10-22T17:40:42.655Z,3.65
2022-10-22T17:43:29.762Z,3.90
2022-10-22T17:46:18.151Z,4.13
2022-10-22T17:49:06.935Z,3.50
2022-10-22T17:51:55.208Z,3.30
2022-10-22T17:54:42.380Z,3.22
2022-10-22T17:57:29.165Z,4.18
2022-10-22T18:03:09.813Z,4.07
2022-10-22T18:05:56.801Z,3.67
2022-10-22T18:08:45.377Z,3.80
2022-10-22T18:11:32.699Z,3.53
2022-10-22T18:14:20.574Z,3.17
2022-10-22T18:17:08.043Z,3.45
2022-10-22T18:19:55.247Z,2.80
2022-10-22T18:22:42.454Z,2.92
2022-10-22T18:25:31.792Z,3.53
2022-10-22T18:28:19.279Z,2.88
2022-10-22T18:31:06.361Z,3.42
2022-10-22T18:36:45.685Z,2.78
2022-10-22T18:39:32.554Z,3.38
2022-10-22T18:42:20.972Z,3.35
2022-10-22T18:45:08.639Z,3.83
2022-10-22T18:47:55.748Z,4.05
2022-10-22T18:50:42.822Z,4.45
2022-10-22T18:53:30.000Z,4.28
2022-10-22T18:56:16.829Z,4.35
2022-10-22T18:59:05.108Z,4.43
2022-10-22T19:01:53.143Z,4.47
2022-10-22T19:04:40.030Z,4.20
2022-10-22T19:07:26.978Z,4.50
2022-10-22T19:10:13.907Z,4.65
2022-10-22T19:13:00.660Z,4.50
2022-10-22T19:15:48.857Z,4.82
2022-10-22T19:18:36.005Z,5.85
2022-10-22T19:21:23.295Z,5.72
2022-10-22T19:24:11.143Z,5.75
2022-10-22T19:26:58.242Z,5.85
2022-10-22T19:29:45.449Z,5.68
2022-10-22T19:32:33.761Z,4.82
2022-10-22T19:35:20.541Z,4.68
2022-10-22T19:38:07.380Z,4.22
2022-10-22T19:40:54.021Z,4.78
2022-10-22T19:43:40.905Z,4.68
2022-10-22T19:46:28.991Z,3.83
2022-10-22T19:49:21.968Z,3.97
2022-10-22T19:52:09.909Z,4.30
2022-10-22T19:54:56.719Z,4.45
2022-10-22T19:57:44.077Z,4.75
2022-10-22T20:00:32.176Z,5.15
2022-10-22T20:03:20.079Z,5.28
2022-10-22T20:06:09.446Z,5.35
2022-10-22T20:08:56.503Z,4.43
2022-10-22T20:11:44.387Z,4.28
2022-10-22T20:14:31.207Z,4.55
2022-10-22T20:17:18.243Z,4.53
2022-10-22T20:20:05.717Z,3.47
2022-10-22T20:22:54.093Z,3.97
2022-10-22T20:25:42.235Z,3.67
2022-10-22T20:28:29.364Z,4.38
2022-10-22T20:31:19.822Z,4.40
2022-10-22T20:34:07.023Z,4.60
2022-10-22T20:36:53.833Z,4.45
2022-10-22T20:39:42.004Z,4.13
2022-10-22T20:42:28.821Z,3.67
2022-10-22T20:45:15.848Z,3.85
2022-10-22T20:48:03.207Z,3.60
2022-10-22T20:50:50.368Z,3.22
2022-10-22T20:53:37.370Z,3.22
2022-10-22T20:56:25.761Z,4.28
2022-10-22T20:59:12.963Z,3.63
2022-10-22T21:02:00.911Z,3.38
2022-10-22T21:04:48.072Z,3.35
2022-10-22T21:07:35.354Z,3.20
2022-10-22T21:10:22.552Z,2.95
2022-10-22T21:13:10.885Z,3.40
2022-10-22T21:15:57.587Z,3.53
2022-10-22T21:18:44.418Z,3.25
2022-10-22T21:21:31.319Z,3.17
2022-10-22T21:24:18.182Z,3.65
2022-10-22T21:27:07.136Z,3.50
2022-10-22T21:29:55.364Z,3.97
2022-10-22T21:32:42.494Z,3.42
2022-10-22T21:35:29.580Z,3.30
2022-10-22T21:38:16.618Z,3.00
2022-10-22T21:41:05.329Z,3.10
2022-10-22T21:43:52.823Z,3.42
2022-10-22T21:46:41.002Z,3.20
2022-10-22T21:49:28.146Z,3.50
2022-10-22T21:52:15.056Z,3.80
2022-10-22T21:55:02.033Z,3.85
2022-10-22T21:57:48.882Z,3.85
2022-10-22T22:00:36.087Z,3.70
2022-10-22T22:03:24.724Z,4.10
2022-10-22T22:06:11.418Z,3.80
2022-10-22T22:08:58.551Z,4.00
2022-10-22T22:11:45.664Z,4.20
2022-10-22T22:14:32.710Z,4.25
2022-10-22T22:17:19.670Z,3.63
2022-10-22T22:20:10.057Z,3.42
2022-10-22T22:22:57.137Z,3.67
2022-10-22T22:25:44.942Z,3.45
2022-10-22T22:28:32.272Z,4.20
2022-10-22T22:31:19.890Z,4.22
2022-10-22T22:34:08.519Z,3.60
2022-10-22T22:36:56.706Z,3.90
2022-10-22T22:39:43.435Z,3.97
2022-10-22T22:42:30.294Z,3.53
2022-10-22T22:45:17.236Z,3.58
2022-10-22T22:48:04.316Z,4.65
2022-10-22T22:50:51.287Z,3.97
2022-10-22T22:53:39.663Z,4.43
2022-10-22T22:56:27.690Z,3.22
2022-10-22T22:59:14.719Z,3.70
2022-10-22T23:02:01.553Z,4.03
2022-10-22T23:04:48.452Z,3.70
2022-10-22T23:07:35.337Z,3.60
2022-10-22T23:10:24.082Z,3.80
2022-10-22T23:13:11.695Z,3.58
2022-10-22T23:15:58.777Z,4.00
2022-10-22T23:18:46.376Z,3.65
2022-10-22T23:21:34.746Z,3.08
2022-10-22T23:24:22.363Z,4.22
2022-10-22T23:27:11.903Z,3.22
2022-10-22T23:29:58.784Z,4.05
2022-10-22T23:32:45.676Z,3.28
2022-10-22T23:35:32.563Z,3.67
2022-10-22T23:38:19.473Z,3.50
2022-10-22T23:41:06.770Z,3.70
2022-10-22T23:43:55.119Z,3.83
2022-10-22T23:46:41.965Z,4.13
2022-10-22T23:49:28.783Z,3.80
2022-10-22T23:52:15.658Z,3.40
2022-10-22T23:55:02.363Z,3.70
2022-10-22T23:57:49.269Z,3.30
